Terminal Aerodrome Forecast
Issued by NWS

Home | Current Version | Previous Version | Text Only | Print | Product List | Glossary On
Versions: 1 2 3 4 5 6 7 8 9 10 11 12 13 14 15 16 17
954
FTUS46 KPDT 060536
TAFALW
TAF
KALW 060536Z 0606/0706 VRB06KT P6SM VCSH BKN040 BKN100
      TEMPO 0606/0610 -RA BKN040 BKN100
     FM061000 VRB06KT P6SM SCT040 BKN100
     FM061600 32008KT P6SM SCT100 BKN250
     FM062100 36012G22KT P6SM SCT100 BKN250
     FM070400 36008KT P6SM SCT100 BKN250=

USA.gov is the U.S. government's official web portal to all federal, state and local government web resources and services.